Airfield :
LOGIN :

Register | Disclaimer

   EN    FR    IT 

 










Legend :    VFR   Marginal VFR   IFR   Intensive IFR   Very Intensive IFR
Visi :
Ceiling :
>= 8 km
>= 3000ft
5 to 8 km
1000 to 3000 ft
1500m to 5 km
500 to 1000 ft
800 to 1500m
200 to 500 ft
< 800m
< 200 ft
Symbols :   Thunderstorms  Fog  Heavy snow  Heavy precipitations  Wind > 20 kt
SIGMETs :     Misc.  Thunderstorms  Icing  Turbulence  Mountain Waves  Volcanic Ashes






- Airport Elevation : 1299 ft


EDTY - Adolf Würth

CURRENT METAR :
  • 070620Z 22006KT 200V260 CAVOK 16/08 Q1021

EXPIRED METARs :
  • 070550Z 21005KT 180V250 CAVOK 15/08 Q1022
  • 070520Z 22004KT 190V250 CAVOK 14/08 Q1022
  • 070450Z 22006KT CAVOK 14/08 Q1022
  • 070350Z AUTO 23004KT 9999 // BKN093/// OVC130/// 14/07 Q1022

TAF TAF EDTY
Valid from the 07 at 06:00 until the 07 at 15:00 UTC


070500Z 0706/0715 22006KT CAVOK
BECMG 0710/0712 28010KT
TEMPO 0710/0715 28015G25KT SHRA BKN030CB



MET'MAP, your aeronautical weather chart ! - Copyright ORBIFLY December 2007 - Disclaimer

ORBIFLY MET'MAP TEAM :

Programming & Development : Alexandra Zaïnal
Original concept : Baudouin d'Aumeries
Technical & hardware support : Manuel Goepfert
Assistance : Marc-Olivier Méhu




SOURCES & CREDITS :

   NOAA